sensor_id;sensor_type;location;lat;lon;timestamp;pressure;altitude;pressure_sealevel;temperature;humidity
72116;BME280;59991;52.140;5.428;2022-10-14T00:00:08;101611.66;;;10.51;90.61
72116;BME280;59991;52.140;5.428;2022-10-14T00:00:40;101626.09;;;10.51;90.49
72116;BME280;59991;52.140;5.428;2022-10-14T00:01:14;101624.16;;;10.52;90.83
72116;BME280;59991;52.140;5.428;2022-10-14T00:01:47;101617.91;;;10.51;90.95
72116;BME280;59991;52.140;5.428;2022-10-14T00:02:18;101619.41;;;10.49;90.97
72116;BME280;59991;52.140;5.428;2022-10-14T00:02:50;101615.88;;;10.48;90.89
72116;BME280;59991;52.140;5.428;2022-10-14T00:03:21;101615.09;;;10.48;90.71
72116;BME280;59991;52.140;5.428;2022-10-14T00:03:53;101617.47;;;10.49;90.46
72116;BME280;59991;52.140;5.428;2022-10-14T00:04:24;101620.19;;;10.49;90.67
72116;BME280;59991;52.140;5.428;2022-10-14T00:04:56;101605.69;;;10.45;90.88
72116;BME280;59991;52.140;5.428;2022-10-14T00:05:27;101606.47;;;10.46;90.64
72116;BME280;59991;52.140;5.428;2022-10-14T00:06:03;101611.59;;;10.47;90.69
72116;BME280;59991;52.140;5.428;2022-10-14T00:06:34;101607.19;;;10.43;90.89
72116;BME280;59991;52.140;5.428;2022-10-14T00:07:06;101613.50;;;10.47;90.73
72116;BME280;59991;52.140;5.428;2022-10-14T00:07:38;101614.66;;;10.46;90.99
72116;BME280;59991;52.140;5.428;2022-10-14T00:08:09;101611.06;;;10.42;91.12
72116;BME280;59991;52.140;5.428;2022-10-14T00:08:41;101614.22;;;10.44;90.45
72116;BME280;59991;52.140;5.428;2022-10-14T00:09:12;101610.28;;;10.41;91.01
72116;BME280;59991;52.140;5.428;2022-10-14T00:09:44;101613.78;;;10.42;90.87
72116;BME280;59991;52.140;5.428;2022-10-14T00:10:16;101622.41;;;10.44;91.08
72116;BME280;59991;52.140;5.428;2022-10-14T00:10:47;101609.47;;;10.41;90.98
72116;BME280;59991;52.140;5.428;2022-10-14T00:11:24;101618.88;;;10.43;90.85
72116;BME280;59991;52.140;5.428;2022-10-14T00:11:56;101612.66;;;10.43;91.06
72116;BME280;59991;52.140;5.428;2022-10-14T00:12:28;101614.59;;;10.42;91.24
72116;BME280;59991;52.140;5.428;2022-10-14T00:12:59;101608.34;;;10.42;91.06
72116;BME280;59991;52.140;5.428;2022-10-14T00:13:31;101621.25;;;10.45;90.81
72116;BME280;59991;52.140;5.428;2022-10-14T00:14:15;101614.22;;;10.44;90.90
72116;BME280;59991;52.140;5.428;2022-10-14T00:14:47;101612.66;;;10.43;90.60
72116;BME280;59991;52.140;5.428;2022-10-14T00:15:18;101609.47;;;10.41;91.12
72116;BME280;59991;52.140;5.428;2022-10-14T00:15:50;101606.34;;;10.38;90.82
72116;BME280;59991;52.140;5.428;2022-10-14T00:16:33;101617.66;;;10.41;90.97
72116;BME280;59991;52.140;5.428;2022-10-14T00:17:05;101618.81;;;10.39;90.80
72116;BME280;59991;52.140;5.428;2022-10-14T00:17:37;101612.16;;;10.37;90.51
72116;BME280;59991;52.140;5.428;2022-10-14T00:18:08;101618.06;;;10.39;90.76
72116;BME280;59991;52.140;5.428;2022-10-14T00:18:39;101614.44;;;10.35;90.57
72116;BME280;59991;52.140;5.428;2022-10-14T00:19:11;101621.91;;;10.38;90.73
72116;BME280;59991;52.140;5.428;2022-10-14T00:19:43;101620.34;;;10.37;90.54
72116;BME280;59991;52.140;5.428;2022-10-14T00:20:14;101618.41;;;10.37;90.87
72116;BME280;59991;52.140;5.428;2022-10-14T00:20:55;101618.75;;;10.36;90.48
72116;BME280;59991;52.140;5.428;2022-10-14T00:21:28;101615.69;;;10.37;90.66
72116;BME280;59991;52.140;5.428;2022-10-14T00:22:00;101617.59;;;10.37;90.48
72116;BME280;59991;52.140;5.428;2022-10-14T00:22:31;101613.31;;;10.36;90.73
72116;BME280;59991;52.140;5.428;2022-10-14T00:23:03;101611.72;;;10.35;90.31
72116;BME280;59991;52.140;5.428;2022-10-14T00:23:34;101609.34;;;10.33;90.60
72116;BME280;59991;52.140;5.428;2022-10-14T00:24:06;101614.00;;;10.33;90.64
72116;BME280;59991;52.140;5.428;2022-10-14T00:24:38;101618.31;;;10.34;90.73
72116;BME280;59991;52.140;5.428;2022-10-14T00:25:09;101612.78;;;10.30;90.62
72116;BME280;59991;52.140;5.428;2022-10-14T00:25:40;101606.63;;;10.33;91.05
72116;BME280;59991;52.140;5.428;2022-10-14T00:26:17;101609.34;;;10.33;90.86
72116;BME280;59991;52.140;5.428;2022-10-14T00:26:48;101616.38;;;10.34;91.01
72116;BME280;59991;52.140;5.428;2022-10-14T00:27:20;101610.13;;;10.34;90.77
72116;BME280;59991;52.140;5.428;2022-10-14T00:27:52;101617.97;;;10.35;90.75
72116;BME280;59991;52.140;5.428;2022-10-14T00:28:23;101614.00;;;10.33;90.83
72116;BME280;59991;52.140;5.428;2022-10-14T00:28:55;101611.28;;;10.33;90.74
72116;BME280;59991;52.140;5.428;2022-10-14T00:29:26;101605.03;;;10.32;90.64
72116;BME280;59991;52.140;5.428;2022-10-14T00:29:58;101616.03;;;10.36;90.79
72116;BME280;59991;52.140;5.428;2022-10-14T00:30:29;101615.25;;;10.35;90.51
72116;BME280;59991;52.140;5.428;2022-10-14T00:31:01;101614.44;;;10.35;90.60
72116;BME280;59991;52.140;5.428;2022-10-14T00:31:33;101621.84;;;10.34;90.75
72116;BME280;59991;52.140;5.428;2022-10-14T00:32:05;101614.44;;;10.35;90.63
72116;BME280;59991;52.140;5.428;2022-10-14T00:32:36;101606.28;;;10.35;90.57
72116;BME280;59991;52.140;5.428;2022-10-14T00:33:08;101612.06;;;10.33;90.63
72116;BME280;59991;52.140;5.428;2022-10-14T00:33:39;101612.88;;;10.34;90.60
72116;BME280;59991;52.140;5.428;2022-10-14T00:34:11;101614.00;;;10.33;90.50
72116;BME280;59991;52.140;5.428;2022-10-14T00:34:44;101612.44;;;10.32;90.49
72116;BME280;59991;52.140;5.428;2022-10-14T00:35:16;101612.00;;;10.30;90.59
72116;BME280;59991;52.140;5.428;2022-10-14T00:35:58;101612.78;;;10.30;90.69
72116;BME280;59991;52.140;5.428;2022-10-14T00:36:30;101619.03;;;10.31;90.56
72116;BME280;59991;52.140;5.428;2022-10-14T00:37:02;101618.22;;;10.30;90.46
72116;BME280;59991;52.140;5.428;2022-10-14T00:37:33;101610.41;;;10.29;90.66
72116;BME280;59991;52.140;5.428;2022-10-14T00:38:05;101610.41;;;10.29;90.55
72116;BME280;59991;52.140;5.428;2022-10-14T00:38:36;101606.09;;;10.28;90.83
72116;BME280;59991;52.140;5.428;2022-10-14T00:39:07;101606.91;;;10.28;90.82
72116;BME280;59991;52.140;5.428;2022-10-14T00:39:39;101601.78;;;10.27;90.97
72116;BME280;59991;52.140;5.428;2022-10-14T00:40:11;101600.22;;;10.26;90.99
72116;BME280;59991;52.140;5.428;2022-10-14T00:40:42;101601.44;;;10.28;90.62
72116;BME280;59991;52.140;5.428;2022-10-14T00:41:23;101598.28;;;10.26;90.72
72116;BME280;59991;52.140;5.428;2022-10-14T00:41:54;101595.19;;;10.28;90.81
72116;BME280;59991;52.140;5.428;2022-10-14T00:42:26;101597.13;;;10.27;90.60
72116;BME280;59991;52.140;5.428;2022-10-14T00:42:57;101591.69;;;10.27;90.64
72116;BME280;59991;52.140;5.428;2022-10-14T00:43:47;101599.84;;;10.27;90.56
72116;BME280;59991;52.140;5.428;2022-10-14T00:45:02;101604.16;;;10.28;90.67
72116;BME280;59991;52.140;5.428;2022-10-14T00:45:34;101602.59;;;10.27;90.65
72116;BME280;59991;52.140;5.428;2022-10-14T00:46:08;101599.84;;;10.27;90.78
72116;BME280;59991;52.140;5.428;2022-10-14T00:46:46;101593.53;;;10.23;90.62
72116;BME280;59991;52.140;5.428;2022-10-14T00:47:17;101599.06;;;10.27;90.65
72116;BME280;59991;52.140;5.428;2022-10-14T00:47:50;101589.31;;;10.26;91.06
72116;BME280;59991;52.140;5.428;2022-10-14T00:48:23;101590.91;;;10.27;90.66
72116;BME280;59991;52.140;5.428;2022-10-14T00:48:57;101587.38;;;10.26;90.83
72116;BME280;59991;52.140;5.428;2022-10-14T00:49:33;101590.09;;;10.26;90.85
72116;BME280;59991;52.140;5.428;2022-10-14T00:50:07;101588.97;;;10.27;90.65
72116;BME280;59991;52.140;5.428;2022-10-14T00:50:41;101588.97;;;10.27;90.73
72116;BME280;59991;52.140;5.428;2022-10-14T00:51:13;101586.94;;;10.24;90.62
72116;BME280;59991;52.140;5.428;2022-10-14T00:51:53;101587.72;;;10.25;90.28
72116;BME280;59991;52.140;5.428;2022-10-14T00:52:26;101589.66;;;10.24;90.81
72116;BME280;59991;52.140;5.428;2022-10-14T00:52:58;101581.84;;;10.23;90.76
72116;BME280;59991;52.140;5.428;2022-10-14T00:53:29;101585.97;;;10.17;90.56
72116;BME280;59991;52.140;5.428;2022-10-14T00:54:01;101586.78;;;10.17;90.79
72116;BME280;59991;52.140;5.428;2022-10-14T00:54:40;101588.03;;;10.20;90.68
72116;BME280;59991;52.140;5.428;2022-10-14T00:55:15;101592.69;;;10.19;91.02
72116;BME280;59991;52.140;5.428;2022-10-14T00:55:47;101583.25;;;10.17;90.93
72116;BME280;59991;52.140;5.428;2022-10-14T00:56:23;101591.91;;;10.19;90.82
72116;BME280;59991;52.140;5.428;2022-10-14T00:56:55;101591.91;;;10.19;90.96
72116;BME280;59991;52.140;5.428;2022-10-14T00:57:27;101589.50;;;10.17;91.25
72116;BME280;59991;52.140;5.428;2022-10-14T00:57:59;101588.34;;;10.18;91.23
72116;BME280;59991;52.140;5.428;2022-10-14T00:58:31;101596.53;;;10.18;90.84
72116;BME280;59991;52.140;5.428;2022-10-14T00:59:03;101588.78;;;10.20;91.01
72116;BME280;59991;52.140;5.428;2022-10-14T00:59:37;101585.97;;;10.17;90.57
72116;BME280;59991;52.140;5.428;2022-10-14T01:00:12;101585.19;;;10.16;90.88
72116;BME280;59991;52.140;5.428;2022-10-14T01:00:44;101584.41;;;10.16;90.98
72116;BME280;59991;52.140;5.428;2022-10-14T01:01:16;101583.97;;;10.14;91.26
72116;BME280;59991;52.140;5.428;2022-10-14T01:01:47;101583.25;;;10.17;90.79
72116;BME280;59991;52.140;5.428;2022-10-14T01:02:18;101578.16;;;10.15;91.07
72116;BME280;59991;52.140;5.428;2022-10-14T01:02:50;101584.03;;;10.17;91.11
72116;BME280;59991;52.140;5.428;2022-10-14T01:03:22;101575.09;;;10.17;91.30
72116;BME280;59991;52.140;5.428;2022-10-14T01:03:53;101569.19;;;10.15;91.20
72116;BME280;59991;52.140;5.428;2022-10-14T01:04:25;101577.38;;;10.15;91.04
72116;BME280;59991;52.140;5.428;2022-10-14T01:04:58;101568.41;;;10.14;91.20
72116;BME280;59991;52.140;5.428;2022-10-14T01:05:32;101569.97;;;10.15;91.44
72116;BME280;59991;52.140;5.428;2022-10-14T01:06:09;101573.16;;;10.17;91.45
72116;BME280;59991;52.140;5.428;2022-10-14T01:06:59;101570.78;;;10.16;91.31
72116;BME280;59991;52.140;5.428;2022-10-14T01:08:34;101562.59;;;10.16;90.97
72116;BME280;59991;52.140;5.428;2022-10-14T01:09:32;101562.16;;;10.14;90.93
72116;BME280;59991;52.140;5.428;2022-10-14T01:10:29;101566.81;;;10.13;91.21
72116;BME280;59991;52.140;5.428;2022-10-14T01:11:06;101557.84;;;10.13;90.84
72116;BME280;59991;52.140;5.428;2022-10-14T01:11:57;101556.63;;;10.10;91.01
72116;BME280;59991;52.140;5.428;2022-10-14T01:13:39;101552.25;;;10.05;90.90
72116;BME280;59991;52.140;5.428;2022-10-14T01:14:37;101551.44;;;10.05;90.75
72116;BME280;59991;52.140;5.428;2022-10-14T01:16:42;101549.44;;;10.02;91.15
72116;BME280;59991;52.140;5.428;2022-10-14T01:17:41;101550.66;;;10.04;90.96
72116;BME280;59991;52.140;5.428;2022-10-14T01:18:26;101548.72;;;10.05;90.75
72116;BME280;59991;52.140;5.428;2022-10-14T01:19:20;101551.44;;;10.05;90.98
72116;BME280;59991;52.140;5.428;2022-10-14T01:21:24;101543.28;;;10.05;91.32
72116;BME280;59991;52.140;5.428;2022-10-14T01:22:06;101537.03;;;10.04;90.82
72116;BME280;59991;52.140;5.428;2022-10-14T01:22:57;101541.69;;;10.04;90.79
72116;BME280;59991;52.140;5.428;2022-10-14T01:23:51;101536.25;;;10.04;91.00
72116;BME280;59991;52.140;5.428;2022-10-14T01:25:56;101531.44;;;9.97;91.05
72116;BME280;59991;52.140;5.428;2022-10-14T01:30:16;101517.66;;;9.90;91.23
72116;BME280;59991;52.140;5.428;2022-10-14T01:31:00;101521.97;;;9.91;91.72
72116;BME280;59991;52.140;5.428;2022-10-14T01:31:35;101513.00;;;9.91;91.56
72116;BME280;59991;52.140;5.428;2022-10-14T01:32:26;101510.97;;;9.88;91.44
72116;BME280;59991;52.140;5.428;2022-10-14T01:33:20;101503.16;;;9.86;91.69
72116;BME280;59991;52.140;5.428;2022-10-14T01:33:55;101506.94;;;9.82;91.64
72116;BME280;59991;52.140;5.428;2022-10-14T01:34:35;101498.72;;;9.78;91.59
72116;BME280;59991;52.140;5.428;2022-10-14T01:36:28;101498.28;;;9.76;92.19
72116;BME280;59991;52.140;5.428;2022-10-14T01:37:04;101498.63;;;9.75;92.22
72116;BME280;59991;52.140;5.428;2022-10-14T01:37:46;101501.81;;;9.77;92.94
72116;BME280;59991;52.140;5.428;2022-10-14T01:38:28;101496.78;;;9.79;92.38
72116;BME280;59991;52.140;5.428;2022-10-14T01:39:07;101495.56;;;9.76;92.51
72116;BME280;59991;52.140;5.428;2022-10-14T01:39:43;101497.06;;;9.74;92.61
72116;BME280;59991;52.140;5.428;2022-10-14T01:40:38;101501.34;;;9.75;92.76
72116;BME280;59991;52.140;5.428;2022-10-14T01:41:34;101504.09;;;9.75;93.01
72116;BME280;59991;52.140;5.428;2022-10-14T01:42:15;101506.81;;;9.75;92.92
72116;BME280;59991;52.140;5.428;2022-10-14T01:42:50;101509.19;;;9.76;92.82
72116;BME280;59991;52.140;5.428;2022-10-14T01:43:24;101515.84;;;9.79;93.12
72116;BME280;59991;52.140;5.428;2022-10-14T01:44:01;101514.72;;;9.80;92.98
72116;BME280;59991;52.140;5.428;2022-10-14T01:44:36;101525.25;;;9.81;92.85
72116;BME280;59991;52.140;5.428;2022-10-14T01:45:16;101519.81;;;9.81;92.97
72116;BME280;59991;52.140;5.428;2022-10-14T01:45:50;101517.84;;;9.82;93.23
72116;BME280;59991;52.140;5.428;2022-10-14T01:46:25;101517.09;;;9.81;93.17
72116;BME280;59991;52.140;5.428;2022-10-14T01:46:57;101509.53;;;9.75;92.82
72116;BME280;59991;52.140;5.428;2022-10-14T01:47:32;101508.38;;;9.76;93.08
72116;BME280;59991;52.140;5.428;2022-10-14T01:48:06;101508.81;;;9.78;93.00
72116;BME280;59991;52.140;5.428;2022-10-14T01:48:43;101518.22;;;9.80;92.87
72116;BME280;59991;52.140;5.428;2022-10-14T01:49:24;101509.97;;;9.77;92.75
72116;BME280;59991;52.140;5.428;2022-10-14T01:50:07;101513.97;;;9.83;93.00
72116;BME280;59991;52.140;5.428;2022-10-14T01:50:42;101516.69;;;9.83;92.84
72116;BME280;59991;52.140;5.428;2022-10-14T01:51:19;101510.91;;;9.84;92.86
72116;BME280;59991;52.140;5.428;2022-10-14T01:52:03;101507.81;;;9.86;92.83
72116;BME280;59991;52.140;5.428;2022-10-14T01:52:42;101513.28;;;9.86;92.83
72116;BME280;59991;52.140;5.428;2022-10-14T01:53:22;101509.41;;;9.87;92.83
72116;BME280;59991;52.140;5.428;2022-10-14T01:54:04;101514.50;;;9.88;92.82
72116;BME280;59991;52.140;5.428;2022-10-14T01:54:40;101513.72;;;9.88;93.09
72116;BME280;59991;52.140;5.428;2022-10-14T01:55:17;101510.53;;;9.86;92.68
72116;BME280;59991;52.140;5.428;2022-10-14T01:55:51;101514.84;;;9.87;92.79
72116;BME280;59991;52.140;5.428;2022-10-14T01:56:27;101521.88;;;9.88;92.99
72116;BME280;59991;52.140;5.428;2022-10-14T01:57:03;101523.81;;;9.87;92.64
72116;BME280;59991;52.140;5.428;2022-10-14T01:57:38;101528.13;;;9.88;92.89
72116;BME280;59991;52.140;5.428;2022-10-14T01:58:13;101534.78;;;9.91;93.12
72116;BME280;59991;52.140;5.428;2022-10-14T01:58:45;101540.25;;;9.91;93.29
72116;BME280;59991;52.140;5.428;2022-10-14T01:59:18;101541.03;;;9.91;93.13
72116;BME280;59991;52.140;5.428;2022-10-14T01:59:51;101542.53;;;9.89;93.02
72116;BME280;59991;52.140;5.428;2022-10-14T02:00:24;101551.56;;;9.93;93.06
72116;BME280;59991;52.140;5.428;2022-10-14T02:00:56;101552.38;;;9.93;92.89
72116;BME280;59991;52.140;5.428;2022-10-14T02:01:28;101553.16;;;9.94;92.87
72116;BME280;59991;52.140;5.428;2022-10-14T02:01:59;101549.28;;;9.95;93.13
72116;BME280;59991;52.140;5.428;2022-10-14T02:02:35;101546.13;;;9.93;92.76
72116;BME280;59991;52.140;5.428;2022-10-14T02:03:06;101536.38;;;9.92;93.02
72116;BME280;59991;52.140;5.428;2022-10-14T02:03:43;101535.66;;;9.95;92.76
72116;BME280;59991;52.140;5.428;2022-10-14T02:04:17;101537.25;;;9.96;92.79
72116;BME280;59991;52.140;5.428;2022-10-14T02:04:49;101539.19;;;9.95;92.74
72116;BME280;59991;52.140;5.428;2022-10-14T02:05:27;101540.75;;;9.96;93.04
72116;BME280;59991;52.140;5.428;2022-10-14T02:06:04;101530.56;;;9.93;92.83
72116;BME280;59991;52.140;5.428;2022-10-14T02:06:42;101529.78;;;9.93;93.01
72116;BME280;59991;52.140;5.428;2022-10-14T02:07:23;101543.84;;;9.95;92.99
72116;BME280;59991;52.140;5.428;2022-10-14T02:09:25;101538.41;;;9.95;92.92
72116;BME280;59991;52.140;5.428;2022-10-14T02:10:46;101534.09;;;9.94;93.01
72116;BME280;59991;52.140;5.428;2022-10-14T02:11:21;101532.16;;;9.94;93.10
72116;BME280;59991;52.140;5.428;2022-10-14T02:12:06;101532.94;;;9.95;92.95
72116;BME280;59991;52.140;5.428;2022-10-14T02:13:59;101529.88;;;9.96;93.22
72116;BME280;59991;52.140;5.428;2022-10-14T02:14:50;101532.25;;;9.98;92.90
72116;BME280;59991;52.140;5.428;2022-10-14T02:16:17;101530.31;;;9.98;93.08
72116;BME280;59991;52.140;5.428;2022-10-14T02:16:37;101528.38;;;9.99;92.84
72116;BME280;59991;52.140;5.428;2022-10-14T02:17:55;101523.31;;;10.01;93.04
72116;BME280;59991;52.140;5.428;2022-10-14T02:19:07;101521.41;;;10.01;93.06
72116;BME280;59991;52.140;5.428;2022-10-14T02:19:44;101525.28;;;10.00;92.80
72116;BME280;59991;52.140;5.428;2022-10-14T02:20:24;101525.28;;;10.00;93.37
72116;BME280;59991;52.140;5.428;2022-10-14T02:21:23;101525.28;;;10.00;93.11
72116;BME280;59991;52.140;5.428;2022-10-14T02:22:04;101526.06;;;10.01;93.04
72116;BME280;59991;52.140;5.428;2022-10-14T02:22:42;101522.56;;;10.00;93.05
72116;BME280;59991;52.140;5.428;2022-10-14T02:23:18;101520.59;;;10.01;92.94
72116;BME280;59991;52.140;5.428;2022-10-14T02:24:06;101522.97;;;10.02;93.36
72116;BME280;59991;52.140;5.428;2022-10-14T02:24:43;101519.47;;;10.02;93.09
72116;BME280;59991;52.140;5.428;2022-10-14T02:25:19;101523.75;;;10.03;93.05
72116;BME280;59991;52.140;5.428;2022-10-14T02:25:53;101515.16;;;10.01;93.08
72116;BME280;59991;52.140;5.428;2022-10-14T02:26:25;101519.09;;;10.03;93.01
72116;BME280;59991;52.140;5.428;2022-10-14T02:27:00;101514.41;;;10.00;93.35
72116;BME280;59991;52.140;5.428;2022-10-14T02:27:35;101519.06;;;10.00;93.13
72116;BME280;59991;52.140;5.428;2022-10-14T02:28:10;101507.41;;;10.03;93.12
72116;BME280;59991;52.140;5.428;2022-10-14T02:28:43;101514.75;;;9.99;92.90
72116;BME280;59991;52.140;5.428;2022-10-14T02:29:17;101506.22;;;10.00;93.27
72116;BME280;59991;52.140;5.428;2022-10-14T02:29:50;101513.59;;;10.00;93.32
72116;BME280;59991;52.140;5.428;2022-10-14T02:30:24;101514.41;;;10.00;93.32
72116;BME280;59991;52.140;5.428;2022-10-14T02:31:01;101515.59;;;10.03;93.66
72116;BME280;59991;52.140;5.428;2022-10-14T02:31:34;101512.06;;;10.02;93.37
72116;BME280;59991;52.140;5.428;2022-10-14T02:32:09;101511.28;;;10.02;93.40
72116;BME280;59991;52.140;5.428;2022-10-14T02:32:43;101510.44;;;9.98;93.35
72116;BME280;59991;52.140;5.428;2022-10-14T02:33:15;101518.66;;;10.01;93.43
72116;BME280;59991;52.140;5.428;2022-10-14T02:33:53;101515.94;;;10.01;93.47
72116;BME280;59991;52.140;5.428;2022-10-14T02:34:26;101526.06;;;10.01;93.99
72116;BME280;59991;52.140;5.428;2022-10-14T02:34:58;101525.69;;;10.02;93.37
72116;BME280;59991;52.140;5.428;2022-10-14T02:35:32;101517.47;;;9.99;93.42
72116;BME280;59991;52.140;5.428;2022-10-14T02:36:06;101515.88;;;9.98;93.50
72116;BME280;59991;52.140;5.428;2022-10-14T02:36:40;101512.81;;;9.99;93.67
72116;BME280;59991;52.140;5.428;2022-10-14T02:37:14;101514.78;;;10.02;93.44
72116;BME280;59991;52.140;5.428;2022-10-14T02:37:47;101514.44;;;10.04;93.53
72116;BME280;59991;52.140;5.428;2022-10-14T02:38:19;101518.41;;;10.07;93.44
72116;BME280;59991;52.140;5.428;2022-10-14T02:38:52;101516.03;;;10.05;93.47
72116;BME280;59991;52.140;5.428;2022-10-14T02:39:29;101518.41;;;10.07;93.92
72116;BME280;59991;52.140;5.428;2022-10-14T02:40:09;101516.09;;;10.09;93.33
72116;BME280;59991;52.140;5.428;2022-10-14T02:40:43;101516.91;;;10.09;93.63
72116;BME280;59991;52.140;5.428;2022-10-14T02:41:18;101517.34;;;10.11;93.76
72116;BME280;59991;52.140;5.428;2022-10-14T02:41:51;101509.16;;;10.11;93.70
72116;BME280;59991;52.140;5.428;2022-10-14T02:42:23;101500.19;;;10.11;93.60
72116;BME280;59991;52.140;5.428;2022-10-14T02:42:54;101509.94;;;10.12;93.47
72116;BME280;59991;52.140;5.428;2022-10-14T02:43:26;101512.31;;;10.13;93.67
72116;BME280;59991;52.140;5.428;2022-10-14T02:43:57;101513.09;;;10.14;93.85
72116;BME280;59991;52.140;5.428;2022-10-14T02:44:28;101508.81;;;10.13;93.56
72116;BME280;59991;52.140;5.428;2022-10-14T02:45:00;101510.38;;;10.14;93.75
72116;BME280;59991;52.140;5.428;2022-10-14T02:45:32;101502.56;;;10.12;93.15
72116;BME280;59991;52.140;5.428;2022-10-14T02:46:05;101505.72;;;10.14;93.65
72116;BME280;59991;52.140;5.428;2022-10-14T02:46:38;101509.59;;;10.13;93.31
72116;BME280;59991;52.140;5.428;2022-10-14T02:47:09;101496.25;;;10.08;93.93
72116;BME280;59991;52.140;5.428;2022-10-14T02:47:40;101493.50;;;10.08;93.84
72116;BME280;59991;52.140;5.428;2022-10-14T02:48:13;101499.84;;;10.12;94.29
72116;BME280;59991;52.140;5.428;2022-10-14T02:48:44;101491.22;;;10.10;94.14
72116;BME280;59991;52.140;5.428;2022-10-14T02:49:16;101499.47;;;10.14;93.56
72116;BME280;59991;52.140;5.428;2022-10-14T02:49:48;101500.97;;;10.11;94.22
72116;BME280;59991;52.140;5.428;2022-10-14T02:50:20;101497.91;;;10.13;93.98
72116;BME280;59991;52.140;5.428;2022-10-14T02:50:51;101497.91;;;10.13;93.73
72116;BME280;59991;52.140;5.428;2022-10-14T02:51:23;101495.19;;;10.13;94.36
72116;BME280;59991;52.140;5.428;2022-10-14T02:51:55;101491.31;;;10.14;94.10
72116;BME280;59991;52.140;5.428;2022-10-14T02:52:26;101487.34;;;10.11;93.99
72116;BME280;59991;52.140;5.428;2022-10-14T02:52:58;101490.09;;;10.11;94.20
72116;BME280;59991;52.140;5.428;2022-10-14T02:53:29;101492.81;;;10.11;94.09
72116;BME280;59991;52.140;5.428;2022-10-14T02:54:00;101490.94;;;10.15;94.27
72116;BME280;59991;52.140;5.428;2022-10-14T02:54:32;101474.53;;;10.12;93.73
72116;BME280;59991;52.140;5.428;2022-10-14T02:55:04;101484.72;;;10.15;94.10
72116;BME280;59991;52.140;5.428;2022-10-14T02:55:35;101478.91;;;10.16;93.92
72116;BME280;59991;52.140;5.428;2022-10-14T02:56:08;101479.34;;;10.18;93.91
72116;BME280;59991;52.140;5.428;2022-10-14T02:56:40;101481.63;;;10.16;94.19
72116;BME280;59991;52.140;5.428;2022-10-14T02:57:12;101485.59;;;10.19;94.08
72116;BME280;59991;52.140;5.428;2022-10-14T02:57:43;101480.16;;;10.19;93.83
72116;BME280;59991;52.140;5.428;2022-10-14T02:58:14;101482.88;;;10.19;93.73
72116;BME280;59991;52.140;5.428;2022-10-14T02:58:46;101476.97;;;10.17;94.08
72116;BME280;59991;52.140;5.428;2022-10-14T02:59:17;101476.97;;;10.17;93.98
72116;BME280;59991;52.140;5.428;2022-10-14T02:59:49;101478.91;;;10.16;94.00
72116;BME280;59991;52.140;5.428;2022-10-14T03:00:20;101481.97;;;10.15;94.12
72116;BME280;59991;52.140;5.428;2022-10-14T03:00:52;101488.66;;;10.17;94.24
72116;BME280;59991;52.140;5.428;2022-10-14T03:01:23;101470.28;;;10.14;94.49
72116;BME280;59991;52.140;5.428;2022-10-14T03:01:54;101476.53;;;10.15;94.34
72116;BME280;59991;52.140;5.428;2022-10-14T03:02:26;101477.44;;;10.19;94.13
72116;BME280;59991;52.140;5.428;2022-10-14T03:02:57;101479.00;;;10.20;94.00
72116;BME280;59991;52.140;5.428;2022-10-14T03:03:29;101469.94;;;10.16;94.00
72116;BME280;59991;52.140;5.428;2022-10-14T03:04:00;101470.38;;;10.18;93.94
72116;BME280;59991;52.140;5.428;2022-10-14T03:04:31;101480.47;;;10.17;94.06
72116;BME280;59991;52.140;5.428;2022-10-14T03:05:03;101482.06;;;10.18;94.44
72116;BME280;59991;52.140;5.428;2022-10-14T03:05:35;101476.63;;;10.18;94.23
72116;BME280;59991;52.140;5.428;2022-10-14T03:06:06;101474.72;;;10.19;94.31
72116;BME280;59991;52.140;5.428;2022-10-14T03:06:37;101475.81;;;10.18;94.19
72116;BME280;59991;52.140;5.428;2022-10-14T03:07:09;101469.94;;;10.16;94.32
72116;BME280;59991;52.140;5.428;2022-10-14T03:07:40;101475.03;;;10.17;94.39
72116;BME280;59991;52.140;5.428;2022-10-14T03:08:12;101476.63;;;10.18;94.11
72116;BME280;59991;52.140;5.428;2022-10-14T03:08:43;101474.72;;;10.19;94.13
72116;BME280;59991;52.140;5.428;2022-10-14T03:09:14;101467.66;;;10.18;94.04
72116;BME280;59991;52.140;5.428;2022-10-14T03:09:46;101469.25;;;10.19;94.35
72116;BME280;59991;52.140;5.428;2022-10-14T03:10:17;101466.53;;;10.19;94.16
72116;BME280;59991;52.140;5.428;2022-10-14T03:10:49;101463.41;;;10.20;94.28
72116;BME280;59991;52.140;5.428;2022-10-14T03:11:20;101463.81;;;10.19;94.32
72116;BME280;59991;52.140;5.428;2022-10-14T03:11:51;101457.91;;;10.17;94.28
72116;BME280;59991;52.140;5.428;2022-10-14T03:12:24;101467.66;;;10.18;94.57
72116;BME280;59991;52.140;5.428;2022-10-14T03:12:55;101461.09;;;10.19;93.91
72116;BME280;59991;52.140;5.428;2022-10-14T03:13:27;101467.31;;;10.19;94.16
72116;BME280;59991;52.140;5.428;2022-10-14T03:13:58;101464.91;;;10.18;94.29
72116;BME280;59991;52.140;5.428;2022-10-14T03:14:29;101464.13;;;10.17;94.74
72116;BME280;59991;52.140;5.428;2022-10-14T03:15:01;101466.53;;;10.19;94.60
72116;BME280;59991;52.140;5.428;2022-10-14T03:15:32;101456.41;;;10.19;94.52
72116;BME280;59991;52.140;5.428;2022-10-14T03:16:04;101466.16;;;10.20;94.74
72116;BME280;59991;52.140;5.428;2022-10-14T03:16:35;101470.44;;;10.21;94.77
72116;BME280;59991;52.140;5.428;2022-10-14T03:17:07;101465.00;;;10.21;94.91
72116;BME280;59991;52.140;5.428;2022-10-14T03:17:39;101456.31;;;10.16;94.78
72116;BME280;59991;52.140;5.428;2022-10-14T03:18:10;101462.97;;;10.18;94.98
72116;BME280;59991;52.140;5.428;2022-10-14T03:18:41;101460.97;;;10.15;94.79
72116;BME280;59991;52.140;5.428;2022-10-14T03:19:13;101459.41;;;10.14;95.32
72116;BME280;59991;52.140;5.428;2022-10-14T03:19:44;101458.25;;;10.15;95.08